Evgenia — 9HA2618 — position and weather

sailwx.info

Track history (hours):
 
Tides and Currents Weather Stations Pressure Air Temp Water Temp Dewpoint Dewpoint Depression Visibility Wind Speed Wind Dir Waves Ship Positions

Evgenia

Last reported at 2017-Sep-21 01:06 UTC. Time now 2017-Oct-17 20:57 UTC.
Position N 36°08' W 010°02'.
Warning: this ship's position is 26 days out of date.

Length 292 m; draft 9 m.

Type: Cargo ship. MMSI: 215039000.

Date/timePositionNaut miles runAvg speedWind from/ knotsBaromVisibWave heightAir tempDewpointWater temp
2017-Sep-21 01:06N 36°08' W 010°02'414.5
2017-Sep-21 00:49N 36°08' W 009°58'1914.6
2017-Sep-20 23:33N 36°11' W 009°35'114.8
2017-Sep-20 23:30N 36°11' W 009°34'714.7
2017-Sep-20 22:59N 36°12' W 009°25'714.6
2017-Sep-20 22:30N 36°13' W 009°16'814.7
2017-Sep-20 22:00N 36°14' W 009°07'714.8
2017-Sep-20 21:30N 36°15' W 008°58'714.6
2017-Sep-20 21:00N 36°16' W 008°49'914.3
2017-Sep-20 20:25N 36°17' W 008°38'814.2
2017-Sep-20 19:52N 36°18' W 008°29'1114.2
2017-Sep-20 19:06N 36°20' W 008°16'214.1
2017-Sep-20 18:57N 36°20' W 008°13'614.2
2017-Sep-20 18:30N 36°21' W 008°05'714.2
2017-Sep-20 18:00N 36°22' W 007°57'714.2
2017-Sep-20 17:30N 36°22' W 007°48'713.9
2017-Sep-20 17:00N 36°24' W 007°39'713.8
2017-Sep-20 16:30N 36°25' W 007°31'713.8
2017-Sep-20 16:00N 36°26' W 007°22'814.0
2017-Sep-20 15:26N 36°27' W 007°13'614.0
2017-Sep-20 15:00N 36°28' W 007°05'23 1.7
2017-Sep-20 01:17N 36°31' W 006°36'0 0.1
2017-Sep-20 00:59N 36°31' W 006°36'0 0.0
2017-Sep-19 23:44N 36°31' W 006°36'0 0.0
2017-Sep-19 21:20N 36°31' W 006°36'0 0.0
2017-Sep-19 20:50N 36°31' W 006°36'0 0.0
2017-Sep-19 20:20N 36°31' W 006°36'  
2017-Sep-15 21:02N 36°31' W 006°36'0 0.0
2017-Sep-15 20:50N 36°31' W 006°36'0 0.0
2017-Sep-15 20:17N 36°31' W 006°36'0 0.0
2017-Sep-15 18:53N 36°31' W 006°36'0 0.0
2017-Sep-15 18:20N 36°31' W 006°36'0 0.0
2017-Sep-15 04:17N 36°31' W 006°36'0 0.0
2017-Sep-15 03:47N 36°31' W 006°36'0 0.0
2017-Sep-14 23:23N 36°31' W 006°36'0 0.2
2017-Sep-14 22:59N 36°31' W 006°36'0 0.0
2017-Sep-14 22:29N 36°31' W 006°36'0 0.1
2017-Sep-14 21:59N 36°31' W 006°36'0 0.0
2017-Sep-14 11:20N 36°31' W 006°36'0 0.0
2017-Sep-14 09:08N 36°31' W 006°36'0 0.1
2017-Sep-14 08:44N 36°31' W 006°36'0 0.0
2017-Sep-14 06:44N 36°31' W 006°36'14 1.5
2017-Sep-13 21:05N 36°18' W 006°31'310.6
2017-Sep-13 20:48N 36°15' W 006°30'310.8
2017-Sep-13 20:30N 36°12' W 006°28'510.8
2017-Sep-13 20:00N 36°07' W 006°25'710.7
2017-Sep-13 19:20N 36°02' W 006°19'710.2
2017-Sep-13 18:37N 35°58' W 006°11'110.7
2017-Sep-13 18:30N 35°58' W 006°10'711.0
2017-Sep-13 17:54N 35°58' W 006°02'2011.6
2017-Sep-13 16:08N 35°57' W 005°36'110.7
2017-Sep-13 16:00N 35°58' W 005°35'510.3
2017-Sep-13 15:30N 35°59' W 005°29'5 9.9
2017-Sep-13 15:00N 36°01' W 005°23'510.0
2017-Sep-13 14:30N 36°02' W 005°17'611.1
2017-Sep-13 14:00N 36°04' W 005°10'21810.6
2017-Sep-12 17:24N 37°19' W 000°55'610.8
2017-Sep-12 16:51N 37°23' W 000°49'410.6
2017-Sep-12 16:30N 37°26' W 000°46'510.8
2017-Sep-12 16:00N 37°29' W 000°41'611.0
2017-Sep-12 15:28N 37°33' W 000°35'510.8
2017-Sep-12 15:00N 37°37' W 000°31'610.7
2017-Sep-12 14:28N 37°42' W 000°27'510.5
2017-Sep-12 13:59N 37°46' W 000°24'510.7
2017-Sep-12 13:30N 37°50' W 000°20'610.7
2017-Sep-12 12:59N 37°55' W 000°16'510.4
2017-Sep-12 12:30N 37°59' W 000°13'510.3
2017-Sep-12 12:00N 38°04' W 000°09'2010.5
2017-Sep-12 10:04N 38°21' E 000°05'5411.6
2017-Sep-12 05:22N 39°05' E 000°46'512.4
2017-Sep-12 04:59N 39°08' E 000°50'612.6
2017-Sep-12 04:29N 39°13' E 000°55'612.3
2017-Sep-12 03:59N 39°18' E 000°60'611.9
2017-Sep-12 03:30N 39°23' E 001°04'711.9
2017-Sep-12 02:57N 39°28' E 001°10'511.7
2017-Sep-12 02:30N 39°32' E 001°14'711.4
2017-Sep-12 01:52N 39°37' E 001°20'411.3
2017-Sep-12 01:30N 39°41' E 001°23'611.3
2017-Sep-12 01:00N 39°45' E 001°27'611.2
2017-Sep-12 00:30N 39°50' E 001°32'611.2
2017-Sep-12 00:00N 39°54' E 001°37'511.1
2017-Sep-11 23:30N 39°58' E 001°41'611.0
2017-Sep-11 23:00N 40°03' E 001°45'611.2
2017-Sep-11 22:30N 40°07' E 001°50'510.9
2017-Sep-11 22:00N 40°11' E 001°54'510.6
2017-Sep-11 21:30N 40°15' E 001°59'510.4
2017-Sep-11 21:00N 40°20' E 002°03'510.3
2017-Sep-11 20:30N 40°24' E 002°07'510.1
2017-Sep-11 20:00N 40°27' E 002°11'510.3
2017-Sep-11 19:30N 40°31' E 002°16'510.3
2017-Sep-11 19:00N 40°35' E 002°20'510.1
2017-Sep-11 18:30N 40°39' E 002°24'5 9.8
2017-Sep-11 18:00N 40°43' E 002°28'5 9.7
2017-Sep-11 17:30N 40°47' E 002°32'5 9.9
2017-Sep-11 17:00N 40°51' E 002°36'510.0
2017-Sep-11 16:30N 40°55' E 002°40'510.6
2017-Sep-11 16:00N 40°59' E 002°44'611.0
2017-Sep-11 15:30N 41°03' E 002°49'611.3
2017-Sep-11 15:00N 41°08' E 002°53'511.0
2017-Sep-11 14:30N 41°12' E 002°58'510.5
2017-Sep-11 14:00N 41°16' E 003°02'11711.2
2017-Sep-11 03:32N 42°49' E 004°38'011.4
2017-Sep-11 03:30N 42°49' E 004°38'611.5
2017-Sep-11 03:00N 42°54' E 004°43'611.6
2017-Sep-11 02:31N 42°59' E 004°47'611.7
2017-Sep-11 02:00N 43°03' E 004°52'611.5
2017-Sep-11 01:30N 43°08' E 004°57'  
Track history (hours):
 
Tides and Currents Weather Stations Pressure Air Temp Water Temp Dewpoint Dewpoint Depression Visibility Wind Speed Wind Dir Waves Ship Positions

Evgenia

Last reported at 2017-Sep-21 01:06 UTC. Time now 2017-Oct-17 20:57 UTC.
Position N 36°08' W 010°02'.
Warning: this ship's position is 26 days out of date.

Length 292 m; draft 9 m.

Type: Cargo ship. MMSI: 215039000.

Date/timePositionNaut miles runAvg speedWind from/ knotsBaromVisibWave heightAir tempDewpointWater temp
2017-Sep-21 01:06N 36°08' W 010°02'414.5
2017-Sep-21 00:49N 36°08' W 009°58'1914.6
2017-Sep-20 23:33N 36°11' W 009°35'114.8
2017-Sep-20 23:30N 36°11' W 009°34'714.7
2017-Sep-20 22:59N 36°12' W 009°25'714.6
2017-Sep-20 22:30N 36°13' W 009°16'814.7
2017-Sep-20 22:00N 36°14' W 009°07'714.8
2017-Sep-20 21:30N 36°15' W 008°58'714.6
2017-Sep-20 21:00N 36°16' W 008°49'914.3
2017-Sep-20 20:25N 36°17' W 008°38'814.2
2017-Sep-20 19:52N 36°18' W 008°29'1114.2
2017-Sep-20 19:06N 36°20' W 008°16'214.1
2017-Sep-20 18:57N 36°20' W 008°13'614.2
2017-Sep-20 18:30N 36°21' W 008°05'714.2
2017-Sep-20 18:00N 36°22' W 007°57'714.2
2017-Sep-20 17:30N 36°22' W 007°48'713.9
2017-Sep-20 17:00N 36°24' W 007°39'713.8
2017-Sep-20 16:30N 36°25' W 007°31'713.8
2017-Sep-20 16:00N 36°26' W 007°22'814.0
2017-Sep-20 15:26N 36°27' W 007°13'614.0
2017-Sep-20 15:00N 36°28' W 007°05'23 1.7
2017-Sep-20 01:17N 36°31' W 006°36'0 0.1
2017-Sep-20 00:59N 36°31' W 006°36'0 0.0
2017-Sep-19 23:44N 36°31' W 006°36'0 0.0
2017-Sep-19 21:20N 36°31' W 006°36'0 0.0
2017-Sep-19 20:50N 36°31' W 006°36'0 0.0
2017-Sep-19 20:20N 36°31' W 006°36'  
2017-Sep-15 21:02N 36°31' W 006°36'0 0.0
2017-Sep-15 20:50N 36°31' W 006°36'0 0.0
2017-Sep-15 20:17N 36°31' W 006°36'0 0.0
2017-Sep-15 18:53N 36°31' W 006°36'0 0.0
2017-Sep-15 18:20N 36°31' W 006°36'0 0.0
2017-Sep-15 04:17N 36°31' W 006°36'0 0.0
2017-Sep-15 03:47N 36°31' W 006°36'0 0.0
2017-Sep-14 23:23N 36°31' W 006°36'0 0.2
2017-Sep-14 22:59N 36°31' W 006°36'0 0.0
2017-Sep-14 22:29N 36°31' W 006°36'0 0.1
2017-Sep-14 21:59N 36°31' W 006°36'0 0.0
2017-Sep-14 11:20N 36°31' W 006°36'0 0.0
2017-Sep-14 09:08N 36°31' W 006°36'0 0.1
2017-Sep-14 08:44N 36°31' W 006°36'0 0.0
2017-Sep-14 06:44N 36°31' W 006°36'14 1.5
2017-Sep-13 21:05N 36°18' W 006°31'310.6
2017-Sep-13 20:48N 36°15' W 006°30'310.8
2017-Sep-13 20:30N 36°12' W 006°28'510.8
2017-Sep-13 20:00N 36°07' W 006°25'710.7
2017-Sep-13 19:20N 36°02' W 006°19'710.2
2017-Sep-13 18:37N 35°58' W 006°11'110.7
2017-Sep-13 18:30N 35°58' W 006°10'711.0
2017-Sep-13 17:54N 35°58' W 006°02'2011.6
2017-Sep-13 16:08N 35°57' W 005°36'110.7
2017-Sep-13 16:00N 35°58' W 005°35'510.3
2017-Sep-13 15:30N 35°59' W 005°29'5 9.9
2017-Sep-13 15:00N 36°01' W 005°23'510.0
2017-Sep-13 14:30N 36°02' W 005°17'611.1
2017-Sep-13 14:00N 36°04' W 005°10'21810.6
2017-Sep-12 17:24N 37°19' W 000°55'610.8
2017-Sep-12 16:51N 37°23' W 000°49'410.6
2017-Sep-12 16:30N 37°26' W 000°46'510.8
2017-Sep-12 16:00N 37°29' W 000°41'611.0
2017-Sep-12 15:28N 37°33' W 000°35'510.8
2017-Sep-12 15:00N 37°37' W 000°31'610.7
2017-Sep-12 14:28N 37°42' W 000°27'510.5
2017-Sep-12 13:59N 37°46' W 000°24'510.7
2017-Sep-12 13:30N 37°50' W 000°20'610.7
2017-Sep-12 12:59N 37°55' W 000°16'510.4
2017-Sep-12 12:30N 37°59' W 000°13'510.3
2017-Sep-12 12:00N 38°04' W 000°09'2010.5
2017-Sep-12 10:04N 38°21' E 000°05'5411.6
2017-Sep-12 05:22N 39°05' E 000°46'512.4
2017-Sep-12 04:59N 39°08' E 000°50'612.6
2017-Sep-12 04:29N 39°13' E 000°55'612.3
2017-Sep-12 03:59N 39°18' E 000°60'611.9
2017-Sep-12 03:30N 39°23' E 001°04'711.9
2017-Sep-12 02:57N 39°28' E 001°10'511.7
2017-Sep-12 02:30N 39°32' E 001°14'711.4
2017-Sep-12 01:52N 39°37' E 001°20'411.3
2017-Sep-12 01:30N 39°41' E 001°23'611.3
2017-Sep-12 01:00N 39°45' E 001°27'611.2
2017-Sep-12 00:30N 39°50' E 001°32'611.2
2017-Sep-12 00:00N 39°54' E 001°37'511.1
2017-Sep-11 23:30N 39°58' E 001°41'611.0
2017-Sep-11 23:00N 40°03' E 001°45'611.2
2017-Sep-11 22:30N 40°07' E 001°50'510.9
2017-Sep-11 22:00N 40°11' E 001°54'510.6
2017-Sep-11 21:30N 40°15' E 001°59'510.4
2017-Sep-11 21:00N 40°20' E 002°03'510.3
2017-Sep-11 20:30N 40°24' E 002°07'510.1
2017-Sep-11 20:00N 40°27' E 002°11'510.3
2017-Sep-11 19:30N 40°31' E 002°16'510.3
2017-Sep-11 19:00N 40°35' E 002°20'510.1
2017-Sep-11 18:30N 40°39' E 002°24'5 9.8
2017-Sep-11 18:00N 40°43' E 002°28'5 9.7
2017-Sep-11 17:30N 40°47' E 002°32'5 9.9
2017-Sep-11 17:00N 40°51' E 002°36'510.0
2017-Sep-11 16:30N 40°55' E 002°40'510.6
2017-Sep-11 16:00N 40°59' E 002°44'611.0
2017-Sep-11 15:30N 41°03' E 002°49'611.3
2017-Sep-11 15:00N 41°08' E 002°53'511.0
2017-Sep-11 14:30N 41°12' E 002°58'510.5
2017-Sep-11 14:00N 41°16' E 003°02'11711.2
2017-Sep-11 03:32N 42°49' E 004°38'011.4
2017-Sep-11 03:30N 42°49' E 004°38'611.5
2017-Sep-11 03:00N 42°54' E 004°43'611.6
2017-Sep-11 02:31N 42°59' E 004°47'611.7
2017-Sep-11 02:00N 43°03' E 004°52'611.5
2017-Sep-11 01:30N 43°08' E 004°57'  

Dump ship's entire track history